sensor_id;sensor_type;location;lat;lon;timestamp;noise_LAeq;noise_LA_min;noise_LA_max;noise_LA01;noise_LA95
68599;Laerm;18038;50.166;18.908;2024-01-30T00:02:51;32.61;31.63;35.38;;
68599;Laerm;18038;50.166;18.908;2024-01-30T00:06:37;32.40;31.66;35.68;;
68599;Laerm;18038;50.166;18.908;2024-01-30T00:10:24;32.63;31.81;43.21;;
68599;Laerm;18038;50.166;18.908;2024-01-30T00:14:13;32.47;31.82;37.56;;
68599;Laerm;18038;50.166;18.908;2024-01-30T00:18:01;33.51;31.84;42.36;;
68599;Laerm;18038;50.166;18.908;2024-01-30T00:21:47;39.76;31.90;62.26;;
68599;Laerm;18038;50.166;18.908;2024-01-30T00:25:34;34.68;32.03;49.11;;
68599;Laerm;18038;50.166;18.908;2024-01-30T00:29:23;32.64;31.81;41.21;;
68599;Laerm;18038;50.166;18.908;2024-01-30T00:33:11;32.48;31.81;40.18;;
68599;Laerm;18038;50.166;18.908;2024-01-30T00:36:58;32.55;31.75;35.31;;
68599;Laerm;18038;50.166;18.908;2024-01-30T00:40:45;35.11;31.70;50.92;;
68599;Laerm;18038;50.166;18.908;2024-01-30T00:44:35;34.11;31.88;47.29;;
68599;Laerm;18038;50.166;18.908;2024-01-30T00:48:22;32.84;31.79;41.77;;
68599;Laerm;18038;50.166;18.908;2024-01-30T00:52:08;33.20;31.82;41.67;;
68599;Laerm;18038;50.166;18.908;2024-01-30T00:55:55;34.96;31.79;49.52;;
68599;Laerm;18038;50.166;18.908;2024-01-30T00:59:44;32.72;31.70;36.82;;
68599;Laerm;18038;50.166;18.908;2024-01-30T01:03:34;32.42;31.66;33.81;;
68599;Laerm;18038;50.166;18.908;2024-01-30T01:07:20;32.48;31.77;34.51;;
68599;Laerm;18038;50.166;18.908;2024-01-30T01:11:07;35.00;31.72;53.77;;
68599;Laerm;18038;50.166;18.908;2024-01-30T01:14:56;33.50;31.68;45.32;;
68599;Laerm;18038;50.166;18.908;2024-01-30T01:18:43;32.76;31.84;42.34;;
68599;Laerm;18038;50.166;18.908;2024-01-30T01:22:30;33.52;31.95;43.49;;
68599;Laerm;18038;50.166;18.908;2024-01-30T01:26:18;36.35;31.79;51.41;;
68599;Laerm;18038;50.166;18.908;2024-01-30T01:30:10;33.95;31.98;48.15;;
68599;Laerm;18038;50.166;18.908;2024-01-30T01:33:59;34.46;31.89;49.42;;
68599;Laerm;18038;50.166;18.908;2024-01-30T01:37:45;34.80;31.86;48.79;;
68599;Laerm;18038;50.166;18.908;2024-01-30T01:41:33;36.80;31.87;64.04;;
68599;Laerm;18038;50.166;18.908;2024-01-30T01:45:23;35.22;31.91;49.39;;
68599;Laerm;18038;50.166;18.908;2024-01-30T01:49:11;33.97;31.90;47.11;;
68599;Laerm;18038;50.166;18.908;2024-01-30T01:52:58;36.87;31.97;53.25;;
68599;Laerm;18038;50.166;18.908;2024-01-30T01:56:47;36.95;31.86;53.22;;
68599;Laerm;18038;50.166;18.908;2024-01-30T02:00:36;33.93;31.63;46.48;;
68599;Laerm;18038;50.166;18.908;2024-01-30T02:04:24;33.13;31.97;41.36;;
68599;Laerm;18038;50.166;18.908;2024-01-30T02:08:10;33.50;31.91;42.38;;
68599;Laerm;18038;50.166;18.908;2024-01-30T02:11:57;35.85;32.04;48.81;;
68599;Laerm;18038;50.166;18.908;2024-01-30T02:15:49;32.58;31.89;35.25;;
68599;Laerm;18038;50.166;18.908;2024-01-30T02:19:36;33.50;31.74;43.80;;
68599;Laerm;18038;50.166;18.908;2024-01-30T02:23:27;36.00;31.88;51.86;;
68599;Laerm;18038;50.166;18.908;2024-01-30T02:27:14;32.50;31.77;33.58;;
68599;Laerm;18038;50.166;18.908;2024-01-30T02:31:00;34.70;31.82;46.36;;
68599;Laerm;18038;50.166;18.908;2024-01-30T02:34:47;32.49;31.83;38.54;;
68599;Laerm;18038;50.166;18.908;2024-01-30T02:38:36;32.67;31.83;41.32;;
68599;Laerm;18038;50.166;18.908;2024-01-30T02:42:24;33.60;31.64;39.70;;
68599;Laerm;18038;50.166;18.908;2024-01-30T02:46:10;36.15;31.96;52.71;;
68599;Laerm;18038;50.166;18.908;2024-01-30T02:49:57;37.19;32.26;51.36;;
68599;Laerm;18038;50.166;18.908;2024-01-30T02:53:46;36.69;32.07;54.57;;
68599;Laerm;18038;50.166;18.908;2024-01-30T02:57:33;35.01;31.99;47.81;;
68599;Laerm;18038;50.166;18.908;2024-01-30T03:01:19;35.45;31.93;50.49;;
68599;Laerm;18038;50.166;18.908;2024-01-30T03:05:08;35.00;31.95;47.29;;
68599;Laerm;18038;50.166;18.908;2024-01-30T03:08:57;32.79;32.04;37.00;;
68599;Laerm;18038;50.166;18.908;2024-01-30T03:12:45;35.53;31.90;48.66;;
68599;Laerm;18038;50.166;18.908;2024-01-30T03:16:31;36.23;32.44;48.20;;
68599;Laerm;18038;50.166;18.908;2024-01-30T03:20:18;35.31;32.38;49.43;;
68599;Laerm;18038;50.166;18.908;2024-01-30T03:24:08;37.83;32.20;52.12;;
68599;Laerm;18038;50.166;18.908;2024-01-30T03:27:55;36.22;32.09;49.75;;
68599;Laerm;18038;50.166;18.908;2024-01-30T03:31:41;36.32;32.07;49.45;;
68599;Laerm;18038;50.166;18.908;2024-01-30T03:35:28;36.33;32.39;47.26;;
68599;Laerm;18038;50.166;18.908;2024-01-30T03:39:17;35.87;32.19;46.83;;
68599;Laerm;18038;50.166;18.908;2024-01-30T03:43:04;38.70;32.35;53.25;;
68599;Laerm;18038;50.166;18.908;2024-01-30T03:46:51;37.43;32.52;51.62;;
68599;Laerm;18038;50.166;18.908;2024-01-30T03:50:38;37.86;32.51;50.82;;
68599;Laerm;18038;50.166;18.908;2024-01-30T03:54:27;37.43;32.60;49.96;;
68599;Laerm;18038;50.166;18.908;2024-01-30T03:58:14;36.72;32.37;52.05;;
68599;Laerm;18038;50.166;18.908;2024-01-30T04:02:00;37.72;32.87;52.42;;
68599;Laerm;18038;50.166;18.908;2024-01-30T04:05:47;39.80;32.96;49.79;;
68599;Laerm;18038;50.166;18.908;2024-01-30T04:09:36;39.32;33.02;51.39;;
68599;Laerm;18038;50.166;18.908;2024-01-30T04:13:25;42.24;37.07;52.09;;
68599;Laerm;18038;50.166;18.908;2024-01-30T04:17:12;43.08;34.11;52.68;;
68599;Laerm;18038;50.166;18.908;2024-01-30T04:20:59;41.72;33.57;51.87;;
68599;Laerm;18038;50.166;18.908;2024-01-30T04:24:49;41.56;33.27;52.55;;
68599;Laerm;18038;50.166;18.908;2024-01-30T04:28:36;41.65;33.48;51.25;;
68599;Laerm;18038;50.166;18.908;2024-01-30T04:32:22;42.01;33.11;51.86;;
68599;Laerm;18038;50.166;18.908;2024-01-30T04:36:09;41.22;33.62;51.44;;
68599;Laerm;18038;50.166;18.908;2024-01-30T04:39:58;42.13;34.69;57.08;;
68599;Laerm;18038;50.166;18.908;2024-01-30T04:43:46;42.27;34.18;52.87;;
68599;Laerm;18038;50.166;18.908;2024-01-30T04:47:32;41.11;34.08;48.64;;
68599;Laerm;18038;50.166;18.908;2024-01-30T04:51:19;40.75;34.16;50.20;;
68599;Laerm;18038;50.166;18.908;2024-01-30T04:55:08;40.93;34.13;49.56;;
68599;Laerm;18038;50.166;18.908;2024-01-30T04:58:55;40.81;33.65;48.76;;
68599;Laerm;18038;50.166;18.908;2024-01-30T05:02:41;40.58;33.65;50.61;;
68599;Laerm;18038;50.166;18.908;2024-01-30T05:06:29;39.32;33.69;49.94;;
68599;Laerm;18038;50.166;18.908;2024-01-30T05:10:18;40.64;33.56;50.68;;
68599;Laerm;18038;50.166;18.908;2024-01-30T05:14:07;41.61;35.18;51.97;;
68599;Laerm;18038;50.166;18.908;2024-01-30T05:17:54;42.71;34.10;50.15;;
68599;Laerm;18038;50.166;18.908;2024-01-30T05:21:41;41.34;34.77;50.37;;
68599;Laerm;18038;50.166;18.908;2024-01-30T05:25:31;42.04;34.45;50.32;;
68599;Laerm;18038;50.166;18.908;2024-01-30T05:29:18;42.30;34.70;50.79;;
68599;Laerm;18038;50.166;18.908;2024-01-30T05:33:04;42.11;34.47;51.44;;
68599;Laerm;18038;50.166;18.908;2024-01-30T05:36:52;42.42;34.64;49.52;;
68599;Laerm;18038;50.166;18.908;2024-01-30T05:40:41;43.97;34.40;57.25;;
68599;Laerm;18038;50.166;18.908;2024-01-30T05:44:28;42.31;35.20;49.48;;
68599;Laerm;18038;50.166;18.908;2024-01-30T05:48:14;43.02;34.90;51.13;;
68599;Laerm;18038;50.166;18.908;2024-01-30T05:52:03;41.79;34.99;48.28;;
68599;Laerm;18038;50.166;18.908;2024-01-30T05:55:53;42.48;34.91;49.61;;
68599;Laerm;18038;50.166;18.908;2024-01-30T05:59:40;43.14;35.28;50.40;;
68599;Laerm;18038;50.166;18.908;2024-01-30T06:03:28;43.14;35.16;51.61;;
68599;Laerm;18038;50.166;18.908;2024-01-30T06:07:16;44.67;35.86;55.08;;
68599;Laerm;18038;50.166;18.908;2024-01-30T06:11:10;42.91;34.34;51.36;;
68599;Laerm;18038;50.166;18.908;2024-01-30T06:14:57;42.72;35.38;50.78;;
68599;Laerm;18038;50.166;18.908;2024-01-30T06:18:44;43.83;36.31;59.66;;
68599;Laerm;18038;50.166;18.908;2024-01-30T06:22:31;44.13;36.96;53.02;;
68599;Laerm;18038;50.166;18.908;2024-01-30T06:26:20;43.98;35.48;54.73;;
68599;Laerm;18038;50.166;18.908;2024-01-30T06:30:08;43.72;36.33;51.15;;
68599;Laerm;18038;50.166;18.908;2024-01-30T06:33:55;43.29;36.22;52.10;;
68599;Laerm;18038;50.166;18.908;2024-01-30T06:37:42;43.69;35.94;55.19;;
68599;Laerm;18038;50.166;18.908;2024-01-30T06:41:31;44.58;36.84;53.77;;
68599;Laerm;18038;50.166;18.908;2024-01-30T06:45:18;43.62;36.22;51.12;;
68599;Laerm;18038;50.166;18.908;2024-01-30T06:49:05;43.28;35.67;49.88;;
68599;Laerm;18038;50.166;18.908;2024-01-30T06:52:52;43.43;35.48;56.98;;
68599;Laerm;18038;50.166;18.908;2024-01-30T06:56:41;44.24;36.11;53.64;;
68599;Laerm;18038;50.166;18.908;2024-01-30T07:00:28;44.48;36.43;55.70;;
68599;Laerm;18038;50.166;18.908;2024-01-30T07:04:14;44.50;35.90;56.82;;
68599;Laerm;18038;50.166;18.908;2024-01-30T07:08:01;44.16;36.24;53.87;;
68599;Laerm;18038;50.166;18.908;2024-01-30T07:11:51;42.78;35.69;57.23;;
68599;Laerm;18038;50.166;18.908;2024-01-30T07:15:40;43.40;36.55;52.06;;
68599;Laerm;18038;50.166;18.908;2024-01-30T07:19:26;44.73;37.05;55.55;;
68599;Laerm;18038;50.166;18.908;2024-01-30T07:23:13;43.29;36.68;56.24;;
68599;Laerm;18038;50.166;18.908;2024-01-30T07:27:04;44.60;37.08;55.01;;
68599;Laerm;18038;50.166;18.908;2024-01-30T07:30:51;42.62;35.73;52.96;;
68599;Laerm;18038;50.166;18.908;2024-01-30T07:34:37;43.01;35.56;53.32;;
68599;Laerm;18038;50.166;18.908;2024-01-30T07:38:38;43.44;36.40;52.19;;
68599;Laerm;18038;50.166;18.908;2024-01-30T07:42:27;42.13;35.23;50.40;;
68599;Laerm;18038;50.166;18.908;2024-01-30T07:46:14;43.28;34.18;58.67;;
68599;Laerm;18038;50.166;18.908;2024-01-30T07:50:01;41.74;34.23;57.72;;
68599;Laerm;18038;50.166;18.908;2024-01-30T07:53:48;41.81;34.63;50.55;;
68599;Laerm;18038;50.166;18.908;2024-01-30T07:57:38;42.14;34.39;51.87;;
68599;Laerm;18038;50.166;18.908;2024-01-30T08:01:26;41.38;34.04;52.71;;
68599;Laerm;18038;50.166;18.908;2024-01-30T08:05:13;48.48;34.44;68.99;;
68599;Laerm;18038;50.166;18.908;2024-01-30T08:09:02;41.80;34.45;50.65;;
68599;Laerm;18038;50.166;18.908;2024-01-30T08:12:51;41.18;34.00;50.19;;
68599;Laerm;18038;50.166;18.908;2024-01-30T08:16:38;40.23;33.67;50.12;;
68599;Laerm;18038;50.166;18.908;2024-01-30T08:20:25;40.82;33.52;52.22;;
68599;Laerm;18038;50.166;18.908;2024-01-30T08:24:12;41.24;33.91;50.49;;
68599;Laerm;18038;50.166;18.908;2024-01-30T08:28:01;41.43;34.15;50.33;;
68599;Laerm;18038;50.166;18.908;2024-01-30T08:31:51;42.03;33.84;51.32;;
68599;Laerm;18038;50.166;18.908;2024-01-30T08:35:38;54.34;35.92;86.21;;
68599;Laerm;18038;50.166;18.908;2024-01-30T08:39:25;49.35;40.95;61.92;;
68599;Laerm;18038;50.166;18.908;2024-01-30T08:43:14;49.47;40.83;60.57;;
68599;Laerm;18038;50.166;18.908;2024-01-30T08:47:01;50.62;40.02;61.92;;
68599;Laerm;18038;50.166;18.908;2024-01-30T08:50:47;49.65;40.08;58.25;;
68599;Laerm;18038;50.166;18.908;2024-01-30T08:54:34;50.18;40.33;63.08;;
68599;Laerm;18038;50.166;18.908;2024-01-30T08:58:23;48.62;40.31;57.06;;
68599;Laerm;18038;50.166;18.908;2024-01-30T09:02:11;48.99;40.34;58.81;;
68599;Laerm;18038;50.166;18.908;2024-01-30T09:05:57;49.38;39.44;58.96;;
68599;Laerm;18038;50.166;18.908;2024-01-30T09:09:44;51.35;39.78;63.00;;
68599;Laerm;18038;50.166;18.908;2024-01-30T09:13:33;49.72;39.94;58.97;;
68599;Laerm;18038;50.166;18.908;2024-01-30T09:17:21;49.01;39.94;58.48;;
68599;Laerm;18038;50.166;18.908;2024-01-30T09:21:07;49.70;40.17;56.48;;
68599;Laerm;18038;50.166;18.908;2024-01-30T09:24:54;50.52;39.61;64.01;;
68599;Laerm;18038;50.166;18.908;2024-01-30T09:28:43;50.96;39.67;65.90;;
68599;Laerm;18038;50.166;18.908;2024-01-30T09:32:30;49.53;40.08;59.89;;
68599;Laerm;18038;50.166;18.908;2024-01-30T09:36:16;51.96;40.28;65.73;;
68599;Laerm;18038;50.166;18.908;2024-01-30T09:40:05;50.38;41.08;65.08;;
68599;Laerm;18038;50.166;18.908;2024-01-30T09:44:00;50.15;39.13;61.87;;
68599;Laerm;18038;50.166;18.908;2024-01-30T09:47:48;50.20;40.08;62.95;;
68599;Laerm;18038;50.166;18.908;2024-01-30T09:51:36;52.95;39.83;64.63;;
68599;Laerm;18038;50.166;18.908;2024-01-30T09:55:24;51.90;39.28;68.31;;
68599;Laerm;18038;50.166;18.908;2024-01-30T09:59:13;51.40;39.72;63.51;;
68599;Laerm;18038;50.166;18.908;2024-01-30T10:03:00;50.50;40.83;62.35;;
68599;Laerm;18038;50.166;18.908;2024-01-30T10:06:48;51.23;40.20;59.93;;
68599;Laerm;18038;50.166;18.908;2024-01-30T10:10:36;50.61;41.00;67.48;;
68599;Laerm;18038;50.166;18.908;2024-01-30T10:14:25;49.37;40.49;60.56;;
68599;Laerm;18038;50.166;18.908;2024-01-30T10:18:13;49.12;39.57;59.87;;
68599;Laerm;18038;50.166;18.908;2024-01-30T10:22:00;49.81;40.30;67.22;;
68599;Laerm;18038;50.166;18.908;2024-01-30T10:25:49;54.09;39.64;72.95;;
68599;Laerm;18038;50.166;18.908;2024-01-30T10:29:39;49.01;38.52;58.22;;
68599;Laerm;18038;50.166;18.908;2024-01-30T10:33:27;53.63;38.94;70.43;;
68599;Laerm;18038;50.166;18.908;2024-01-30T10:37:16;52.05;39.30;66.15;;
68599;Laerm;18038;50.166;18.908;2024-01-30T10:41:06;49.60;38.17;64.84;;
68599;Laerm;18038;50.166;18.908;2024-01-30T10:45:07;50.47;38.55;64.16;;
68599;Laerm;18038;50.166;18.908;2024-01-30T10:48:58;51.23;39.35;61.95;;
68599;Laerm;18038;50.166;18.908;2024-01-30T10:52:47;51.00;39.72;64.92;;
68599;Laerm;18038;50.166;18.908;2024-01-30T10:56:35;53.00;38.83;70.39;;
68599;Laerm;18038;50.166;18.908;2024-01-30T11:00:26;51.57;39.28;69.96;;
68599;Laerm;18038;50.166;18.908;2024-01-30T11:04:13;52.37;41.68;60.94;;
68599;Laerm;18038;50.166;18.908;2024-01-30T11:08:11;50.31;39.77;65.11;;
68599;Laerm;18038;50.166;18.908;2024-01-30T11:11:59;51.55;40.34;71.57;;
68599;Laerm;18038;50.166;18.908;2024-01-30T11:15:50;50.62;39.49;64.86;;
68599;Laerm;18038;50.166;18.908;2024-01-30T11:19:38;50.49;40.23;61.65;;
68599;Laerm;18038;50.166;18.908;2024-01-30T11:23:28;52.06;38.50;68.87;;
68599;Laerm;18038;50.166;18.908;2024-01-30T11:27:17;50.51;38.34;62.12;;
68599;Laerm;18038;50.166;18.908;2024-01-30T11:31:07;51.56;40.89;63.25;;
68599;Laerm;18038;50.166;18.908;2024-01-30T11:34:55;51.14;40.18;65.75;;
68599;Laerm;18038;50.166;18.908;2024-01-30T11:38:43;54.13;39.76;72.07;;
68599;Laerm;18038;50.166;18.908;2024-01-30T11:42:31;49.40;39.41;58.83;;
68599;Laerm;18038;50.166;18.908;2024-01-30T11:46:25;49.33;39.35;59.27;;
68599;Laerm;18038;50.166;18.908;2024-01-30T11:50:13;50.57;38.54;60.98;;
68599;Laerm;18038;50.166;18.908;2024-01-30T11:54:00;49.08;38.81;59.98;;
68599;Laerm;18038;50.166;18.908;2024-01-30T11:57:48;48.53;39.03;59.54;;
68599;Laerm;18038;50.166;18.908;2024-01-30T12:01:38;47.79;38.87;56.90;;
68599;Laerm;18038;50.166;18.908;2024-01-30T12:05:26;49.95;39.92;62.06;;
68599;Laerm;18038;50.166;18.908;2024-01-30T12:09:19;48.96;38.66;56.92;;
68599;Laerm;18038;50.166;18.908;2024-01-30T12:13:07;52.30;40.32;68.09;;
68599;Laerm;18038;50.166;18.908;2024-01-30T12:16:56;50.21;39.56;63.59;;
68599;Laerm;18038;50.166;18.908;2024-01-30T12:20:47;50.07;40.04;58.50;;
68599;Laerm;18038;50.166;18.908;2024-01-30T12:24:45;51.47;38.89;66.18;;
68599;Laerm;18038;50.166;18.908;2024-01-30T12:28:33;49.96;37.94;59.24;;
68599;Laerm;18038;50.166;18.908;2024-01-30T12:32:22;49.12;38.36;61.45;;
68599;Laerm;18038;50.166;18.908;2024-01-30T12:36:11;49.73;38.71;59.32;;
68599;Laerm;18038;50.166;18.908;2024-01-30T12:39:58;50.04;38.22;59.12;;
68599;Laerm;18038;50.166;18.908;2024-01-30T12:43:47;50.99;39.01;65.27;;
68599;Laerm;18038;50.166;18.908;2024-01-30T12:47:37;49.94;39.28;59.99;;
68599;Laerm;18038;50.166;18.908;2024-01-30T12:51:24;49.86;39.02;62.48;;
68599;Laerm;18038;50.166;18.908;2024-01-30T12:55:11;50.17;38.53;65.70;;
68599;Laerm;18038;50.166;18.908;2024-01-30T12:58:58;49.69;41.81;59.97;;
68599;Laerm;18038;50.166;18.908;2024-01-30T13:02:48;50.28;38.91;58.69;;
68599;Laerm;18038;50.166;18.908;2024-01-30T13:06:36;52.59;39.92;70.15;;
68599;Laerm;18038;50.166;18.908;2024-01-30T13:10:22;50.31;39.88;59.57;;
68599;Laerm;18038;50.166;18.908;2024-01-30T13:14:09;51.08;43.31;58.84;;
68599;Laerm;18038;50.166;18.908;2024-01-30T13:17:58;51.91;39.48;69.54;;
68599;Laerm;18038;50.166;18.908;2024-01-30T13:21:45;48.92;40.46;56.94;;
68599;Laerm;18038;50.166;18.908;2024-01-30T13:25:31;50.72;40.19;60.68;;
68599;Laerm;18038;50.166;18.908;2024-01-30T13:29:19;51.61;40.12;59.06;;
68599;Laerm;18038;50.166;18.908;2024-01-30T13:33:08;50.30;38.94;57.86;;
68599;Laerm;18038;50.166;18.908;2024-01-30T13:36:56;49.69;38.54;58.25;;
68599;Laerm;18038;50.166;18.908;2024-01-30T13:40:43;50.05;39.55;60.53;;
68599;Laerm;18038;50.166;18.908;2024-01-30T13:44:30;50.44;40.95;57.25;;
68599;Laerm;18038;50.166;18.908;2024-01-30T13:48:19;49.99;39.41;58.89;;
68599;Laerm;18038;50.166;18.908;2024-01-30T13:52:08;49.06;37.81;56.14;;
68599;Laerm;18038;50.166;18.908;2024-01-30T13:56:02;50.64;39.89;63.55;;
68599;Laerm;18038;50.166;18.908;2024-01-30T13:59:49;50.04;40.55;57.58;;
68599;Laerm;18038;50.166;18.908;2024-01-30T14:03:40;50.12;39.37;59.02;;
68599;Laerm;18038;50.166;18.908;2024-01-30T14:07:30;51.71;41.14;62.07;;
68599;Laerm;18038;50.166;18.908;2024-01-30T14:11:17;51.36;40.92;65.39;;
68599;Laerm;18038;50.166;18.908;2024-01-30T14:15:07;50.64;39.51;61.01;;
68599;Laerm;18038;50.166;18.908;2024-01-30T14:19:01;50.50;41.02;58.73;;
68599;Laerm;18038;50.166;18.908;2024-01-30T14:22:48;49.85;40.54;58.47;;
68599;Laerm;18038;50.166;18.908;2024-01-30T14:26:36;49.40;39.29;59.39;;
68599;Laerm;18038;50.166;18.908;2024-01-30T14:30:24;49.72;40.54;56.77;;
68599;Laerm;18038;50.166;18.908;2024-01-30T14:34:13;51.05;39.51;60.78;;
68599;Laerm;18038;50.166;18.908;2024-01-30T14:38:01;50.87;41.58;60.15;;
68599;Laerm;18038;50.166;18.908;2024-01-30T14:41:47;50.55;40.46;58.54;;
68599;Laerm;18038;50.166;18.908;2024-01-30T14:45:34;49.42;39.23;57.72;;
68599;Laerm;18038;50.166;18.908;2024-01-30T14:49:25;50.17;40.49;58.34;;
68599;Laerm;18038;50.166;18.908;2024-01-30T14:53:12;50.82;41.08;61.90;;
68599;Laerm;18038;50.166;18.908;2024-01-30T14:56:58;50.15;40.31;58.22;;
68599;Laerm;18038;50.166;18.908;2024-01-30T15:00:47;51.33;41.48;69.78;;
68599;Laerm;18038;50.166;18.908;2024-01-30T15:04:36;49.55;40.72;56.27;;
68599;Laerm;18038;50.166;18.908;2024-01-30T15:08:23;50.53;39.37;58.53;;
68599;Laerm;18038;50.166;18.908;2024-01-30T15:12:10;50.06;39.21;62.52;;
68599;Laerm;18038;50.166;18.908;2024-01-30T15:15:58;50.17;40.05;59.70;;
68599;Laerm;18038;50.166;18.908;2024-01-30T15:19:47;49.90;39.86;58.98;;
68599;Laerm;18038;50.166;18.908;2024-01-30T15:23:36;50.01;39.71;56.82;;
68599;Laerm;18038;50.166;18.908;2024-01-30T15:27:23;49.57;40.02;62.44;;
68599;Laerm;18038;50.166;18.908;2024-01-30T15:31:10;50.83;40.36;62.75;;
68599;Laerm;18038;50.166;18.908;2024-01-30T15:35:00;51.00;40.69;63.30;;
68599;Laerm;18038;50.166;18.908;2024-01-30T15:38:47;48.94;39.98;57.55;;
68599;Laerm;18038;50.166;18.908;2024-01-30T15:42:34;49.85;38.50;56.58;;
68599;Laerm;18038;50.166;18.908;2024-01-30T15:46:22;50.03;40.26;58.99;;
68599;Laerm;18038;50.166;18.908;2024-01-30T15:50:12;49.95;40.12;58.27;;
68599;Laerm;18038;50.166;18.908;2024-01-30T15:53:58;48.15;39.74;59.61;;
68599;Laerm;18038;50.166;18.908;2024-01-30T15:57:44;49.40;39.73;61.27;;
68599;Laerm;18038;50.166;18.908;2024-01-30T16:01:31;47.99;38.68;57.91;;
68599;Laerm;18038;50.166;18.908;2024-01-30T16:05:21;49.23;39.21;58.28;;
68599;Laerm;18038;50.166;18.908;2024-01-30T16:09:09;49.93;40.30;57.60;;
68599;Laerm;18038;50.166;18.908;2024-01-30T16:12:55;49.32;39.59;62.90;;
68599;Laerm;18038;50.166;18.908;2024-01-30T16:16:42;48.77;39.30;57.09;;
68599;Laerm;18038;50.166;18.908;2024-01-30T16:20:31;49.59;40.83;56.52;;
68599;Laerm;18038;50.166;18.908;2024-01-30T16:24:20;48.51;40.01;55.08;;
68599;Laerm;18038;50.166;18.908;2024-01-30T16:28:06;48.00;39.37;60.92;;
68599;Laerm;18038;50.166;18.908;2024-01-30T16:31:53;48.58;40.61;59.90;;
68599;Laerm;18038;50.166;18.908;2024-01-30T16:35:42;50.44;39.40;61.04;;
68599;Laerm;18038;50.166;18.908;2024-01-30T16:39:29;46.69;39.23;56.09;;
68599;Laerm;18038;50.166;18.908;2024-01-30T16:43:15;48.64;38.83;56.93;;
68599;Laerm;18038;50.166;18.908;2024-01-30T16:47:03;48.96;41.55;56.37;;
68599;Laerm;18038;50.166;18.908;2024-01-30T16:50:52;48.22;39.10;62.83;;
68599;Laerm;18038;50.166;18.908;2024-01-30T16:54:40;50.74;38.86;64.49;;
68599;Laerm;18038;50.166;18.908;2024-01-30T16:58:27;48.32;39.75;61.31;;
68599;Laerm;18038;50.166;18.908;2024-01-30T17:02:15;48.05;38.76;58.03;;
68599;Laerm;18038;50.166;18.908;2024-01-30T17:06:05;48.44;39.55;61.61;;
68599;Laerm;18038;50.166;18.908;2024-01-30T17:09:59;48.31;38.77;58.90;;
68599;Laerm;18038;50.166;18.908;2024-01-30T17:13:45;48.28;38.65;57.90;;
68599;Laerm;18038;50.166;18.908;2024-01-30T17:17:32;47.39;39.49;56.82;;
68599;Laerm;18038;50.166;18.908;2024-01-30T17:21:22;48.13;39.01;56.73;;
68599;Laerm;18038;50.166;18.908;2024-01-30T17:25:13;48.98;39.47;58.68;;
68599;Laerm;18038;50.166;18.908;2024-01-30T17:28:59;47.85;39.07;57.98;;
68599;Laerm;18038;50.166;18.908;2024-01-30T17:32:46;47.41;39.15;60.38;;
68599;Laerm;18038;50.166;18.908;2024-01-30T17:36:36;48.78;38.78;64.32;;
68599;Laerm;18038;50.166;18.908;2024-01-30T17:40:24;49.59;38.68;65.98;;
68599;Laerm;18038;50.166;18.908;2024-01-30T17:44:11;47.70;38.47;61.99;;
68599;Laerm;18038;50.166;18.908;2024-01-30T17:47:58;50.02;39.63;63.83;;
68599;Laerm;18038;50.166;18.908;2024-01-30T17:51:47;47.58;38.66;57.01;;
68599;Laerm;18038;50.166;18.908;2024-01-30T17:55:35;46.74;38.44;56.73;;
68599;Laerm;18038;50.166;18.908;2024-01-30T17:59:20;47.82;39.47;59.36;;
68599;Laerm;18038;50.166;18.908;2024-01-30T18:03:08;47.81;38.52;60.93;;
68599;Laerm;18038;50.166;18.908;2024-01-30T18:06:57;49.21;38.68;65.64;;
68599;Laerm;18038;50.166;18.908;2024-01-30T18:10:44;48.46;39.13;60.23;;
68599;Laerm;18038;50.166;18.908;2024-01-30T18:14:31;46.56;39.48;59.01;;
68599;Laerm;18038;50.166;18.908;2024-01-30T18:18:20;47.84;38.49;64.52;;
68599;Laerm;18038;50.166;18.908;2024-01-30T18:22:11;47.17;38.16;59.49;;
68599;Laerm;18038;50.166;18.908;2024-01-30T18:25:58;47.33;38.83;62.10;;
68599;Laerm;18038;50.166;18.908;2024-01-30T18:29:46;48.51;38.68;57.20;;
68599;Laerm;18038;50.166;18.908;2024-01-30T18:33:34;45.87;38.24;55.68;;
68599;Laerm;18038;50.166;18.908;2024-01-30T18:37:22;46.78;38.36;58.71;;
68599;Laerm;18038;50.166;18.908;2024-01-30T18:41:15;48.85;38.89;66.51;;
68599;Laerm;18038;50.166;18.908;2024-01-30T18:45:02;49.28;38.32;66.77;;
68599;Laerm;18038;50.166;18.908;2024-01-30T18:48:56;50.11;39.16;70.11;;
68599;Laerm;18038;50.166;18.908;2024-01-30T18:52:45;54.18;38.17;77.00;;
68599;Laerm;18038;50.166;18.908;2024-01-30T18:56:37;47.89;37.67;60.59;;
68599;Laerm;18038;50.166;18.908;2024-01-30T19:00:24;47.92;38.06;64.21;;
68599;Laerm;18038;50.166;18.908;2024-01-30T19:04:14;46.55;37.95;59.19;;
68599;Laerm;18038;50.166;18.908;2024-01-30T19:08:04;46.76;37.91;56.21;;
68599;Laerm;18038;50.166;18.908;2024-01-30T19:12:00;49.89;38.05;67.05;;
68599;Laerm;18038;50.166;18.908;2024-01-30T19:15:46;46.71;37.95;57.10;;
68599;Laerm;18038;50.166;18.908;2024-01-30T19:19:34;46.45;37.85;59.10;;
68599;Laerm;18038;50.166;18.908;2024-01-30T19:23:23;49.14;37.89;57.89;;
68599;Laerm;18038;50.166;18.908;2024-01-30T19:27:11;46.14;37.36;57.52;;
68599;Laerm;18038;50.166;18.908;2024-01-30T19:31:00;46.20;37.13;58.11;;
68599;Laerm;18038;50.166;18.908;2024-01-30T19:34:52;47.41;37.83;58.21;;
68599;Laerm;18038;50.166;18.908;2024-01-30T19:38:41;46.60;37.43;59.78;;
68599;Laerm;18038;50.166;18.908;2024-01-30T19:42:36;44.22;36.99;57.19;;
68599;Laerm;18038;50.166;18.908;2024-01-30T19:46:23;47.12;37.60;63.72;;
68599;Laerm;18038;50.166;18.908;2024-01-30T19:50:10;45.61;37.70;56.47;;
68599;Laerm;18038;50.166;18.908;2024-01-30T19:53:59;44.80;36.90;55.81;;
68599;Laerm;18038;50.166;18.908;2024-01-30T19:57:47;46.72;36.69;61.77;;
68599;Laerm;18038;50.166;18.908;2024-01-30T20:01:34;44.94;36.22;57.08;;
68599;Laerm;18038;50.166;18.908;2024-01-30T20:05:22;45.24;36.42;56.62;;
68599;Laerm;18038;50.166;18.908;2024-01-30T20:09:10;48.84;37.11;61.23;;
68599;Laerm;18038;50.166;18.908;2024-01-30T20:12:57;46.48;37.12;57.22;;
68599;Laerm;18038;50.166;18.908;2024-01-30T20:16:44;48.34;36.69;57.55;;
68599;Laerm;18038;50.166;18.908;2024-01-30T20:20:32;46.07;36.64;58.05;;
68599;Laerm;18038;50.166;18.908;2024-01-30T20:24:22;46.90;36.69;61.41;;
68599;Laerm;18038;50.166;18.908;2024-01-30T20:28:10;48.33;36.83;62.45;;
68599;Laerm;18038;50.166;18.908;2024-01-30T20:31:55;47.19;37.19;61.91;;
68599;Laerm;18038;50.166;18.908;2024-01-30T20:35:42;45.93;37.39;63.00;;
68599;Laerm;18038;50.166;18.908;2024-01-30T20:39:31;46.53;36.43;58.20;;
68599;Laerm;18038;50.166;18.908;2024-01-30T20:43:19;46.21;36.69;55.98;;
68599;Laerm;18038;50.166;18.908;2024-01-30T20:47:06;46.96;35.88;71.80;;
68599;Laerm;18038;50.166;18.908;2024-01-30T20:50:54;45.93;36.51;59.98;;
68599;Laerm;18038;50.166;18.908;2024-01-30T20:54:42;46.75;36.79;57.25;;
68599;Laerm;18038;50.166;18.908;2024-01-30T20:58:29;45.53;36.02;61.80;;